sensor_id;sensor_type;location;lat;lon;timestamp;P1;durP1;ratioP1;P2;durP2;ratioP2
1344;SDS011;15375;48.540;9.268;2023-07-31T00:00:06;2.93;;;1.87;;
1344;SDS011;15375;48.540;9.268;2023-07-31T00:02:34;5.03;;;2.27;;
1344;SDS011;15375;48.540;9.268;2023-07-31T00:04:59;3.57;;;2.17;;
1344;SDS011;15375;48.540;9.268;2023-07-31T00:07:25;6.63;;;2.50;;
1344;SDS011;15375;48.540;9.268;2023-07-31T00:09:51;4.90;;;2.13;;
1344;SDS011;15375;48.540;9.268;2023-07-31T00:12:18;2.20;;;2.00;;
1344;SDS011;15375;48.540;9.268;2023-07-31T00:14:44;2.80;;;2.00;;
1344;SDS011;15375;48.540;9.268;2023-07-31T00:17:09;3.23;;;2.10;;
1344;SDS011;15375;48.540;9.268;2023-07-31T00:19:35;2.40;;;1.87;;
1344;SDS011;15375;48.540;9.268;2023-07-31T00:22:00;2.00;;;1.80;;
1344;SDS011;15375;48.540;9.268;2023-07-31T00:24:26;5.40;;;2.77;;
1344;SDS011;15375;48.540;9.268;2023-07-31T00:26:51;3.33;;;2.30;;
1344;SDS011;15375;48.540;9.268;2023-07-31T00:29:17;3.93;;;2.10;;
1344;SDS011;15375;48.540;9.268;2023-07-31T00:31:42;4.50;;;2.63;;
1344;SDS011;15375;48.540;9.268;2023-07-31T00:34:07;2.60;;;2.23;;
1344;SDS011;15375;48.540;9.268;2023-07-31T00:36:33;2.13;;;2.00;;
1344;SDS011;15375;48.540;9.268;2023-07-31T00:38:58;2.37;;;1.70;;
1344;SDS011;15375;48.540;9.268;2023-07-31T00:41:24;3.90;;;2.00;;
1344;SDS011;15375;48.540;9.268;2023-07-31T00:43:49;3.80;;;2.10;;
1344;SDS011;15375;48.540;9.268;2023-07-31T00:46:15;2.37;;;2.10;;
1344;SDS011;15375;48.540;9.268;2023-07-31T00:48:40;3.27;;;1.87;;
1344;SDS011;15375;48.540;9.268;2023-07-31T00:51:07;3.70;;;2.30;;
1344;SDS011;15375;48.540;9.268;2023-07-31T00:53:33;2.93;;;2.40;;
1344;SDS011;15375;48.540;9.268;2023-07-31T00:55:59;2.47;;;2.10;;
1344;SDS011;15375;48.540;9.268;2023-07-31T00:58:25;3.00;;;2.33;;
1344;SDS011;15375;48.540;9.268;2023-07-31T01:00:50;2.50;;;1.70;;
1344;SDS011;15375;48.540;9.268;2023-07-31T01:03:16;2.37;;;2.10;;
1344;SDS011;15375;48.540;9.268;2023-07-31T01:05:43;6.33;;;2.27;;
1344;SDS011;15375;48.540;9.268;2023-07-31T01:10:56;6.00;;;2.30;;
1344;SDS011;15375;48.540;9.268;2023-07-31T01:13:32;2.00;;;1.90;;
1344;SDS011;15375;48.540;9.268;2023-07-31T01:15:58;5.50;;;2.13;;
1344;SDS011;15375;48.540;9.268;2023-07-31T01:18:23;3.70;;;2.50;;
1344;SDS011;15375;48.540;9.268;2023-07-31T01:20:53;9.27;;;2.60;;
1344;SDS011;15375;48.540;9.268;2023-07-31T01:26:33;1.90;;;1.80;;
1344;SDS011;15375;48.540;9.268;2023-07-31T01:29:02;2.30;;;2.03;;
1344;SDS011;15375;48.540;9.268;2023-07-31T01:31:32;4.10;;;2.10;;
1344;SDS011;15375;48.540;9.268;2023-07-31T01:34:00;2.97;;;2.20;;
1344;SDS011;15375;48.540;9.268;2023-07-31T01:36:27;2.57;;;2.13;;
1344;SDS011;15375;48.540;9.268;2023-07-31T01:39:04;3.30;;;2.33;;
1344;SDS011;15375;48.540;9.268;2023-07-31T01:41:29;3.77;;;2.27;;
1344;SDS011;15375;48.540;9.268;2023-07-31T01:43:55;4.03;;;2.43;;
1344;SDS011;15375;48.540;9.268;2023-07-31T01:46:20;3.43;;;2.63;;
1344;SDS011;15375;48.540;9.268;2023-07-31T01:48:46;5.00;;;2.20;;
1344;SDS011;15375;48.540;9.268;2023-07-31T01:51:11;3.40;;;2.40;;
1344;SDS011;15375;48.540;9.268;2023-07-31T01:53:37;2.97;;;2.33;;
1344;SDS011;15375;48.540;9.268;2023-07-31T01:56:02;2.60;;;2.40;;
1344;SDS011;15375;48.540;9.268;2023-07-31T01:58:28;4.30;;;2.57;;
1344;SDS011;15375;48.540;9.268;2023-07-31T02:00:53;3.83;;;2.10;;
1344;SDS011;15375;48.540;9.268;2023-07-31T02:03:19;5.03;;;2.50;;
1344;SDS011;15375;48.540;9.268;2023-07-31T02:05:47;7.33;;;4.00;;
1344;SDS011;15375;48.540;9.268;2023-07-31T02:08:14;2.93;;;1.97;;
1344;SDS011;15375;48.540;9.268;2023-07-31T02:10:40;2.83;;;2.43;;
1344;SDS011;15375;48.540;9.268;2023-07-31T02:13:06;7.63;;;2.33;;
1344;SDS011;15375;48.540;9.268;2023-07-31T02:15:32;2.40;;;2.20;;
1344;SDS011;15375;48.540;9.268;2023-07-31T02:17:57;4.17;;;2.40;;
1344;SDS011;15375;48.540;9.268;2023-07-31T02:20:23;4.23;;;2.00;;
1344;SDS011;15375;48.540;9.268;2023-07-31T02:22:48;3.67;;;2.57;;
1344;SDS011;15375;48.540;9.268;2023-07-31T02:25:14;2.33;;;2.10;;
1344;SDS011;15375;48.540;9.268;2023-07-31T02:27:39;3.70;;;2.30;;
1344;SDS011;15375;48.540;9.268;2023-07-31T02:30:05;4.17;;;2.10;;
1344;SDS011;15375;48.540;9.268;2023-07-31T02:32:31;7.43;;;2.77;;
1344;SDS011;15375;48.540;9.268;2023-07-31T02:34:56;2.70;;;2.23;;
1344;SDS011;15375;48.540;9.268;2023-07-31T02:37:22;2.20;;;2.00;;
1344;SDS011;15375;48.540;9.268;2023-07-31T02:39:48;3.90;;;2.43;;
1344;SDS011;15375;48.540;9.268;2023-07-31T02:42:14;3.70;;;1.97;;
1344;SDS011;15375;48.540;9.268;2023-07-31T02:44:39;5.80;;;2.27;;
1344;SDS011;15375;48.540;9.268;2023-07-31T02:47:05;2.60;;;1.90;;
1344;SDS011;15375;48.540;9.268;2023-07-31T02:49:30;3.00;;;2.30;;
1344;SDS011;15375;48.540;9.268;2023-07-31T02:51:55;3.20;;;1.90;;
1344;SDS011;15375;48.540;9.268;2023-07-31T02:54:21;3.30;;;2.40;;
1344;SDS011;15375;48.540;9.268;2023-07-31T02:56:47;2.83;;;2.00;;
1344;SDS011;15375;48.540;9.268;2023-07-31T02:59:12;5.53;;;2.07;;
1344;SDS011;15375;48.540;9.268;2023-07-31T03:01:38;5.17;;;2.40;;
1344;SDS011;15375;48.540;9.268;2023-07-31T03:04:03;4.27;;;2.47;;
1344;SDS011;15375;48.540;9.268;2023-07-31T03:06:29;3.20;;;2.17;;
1344;SDS011;15375;48.540;9.268;2023-07-31T03:08:55;5.03;;;2.63;;
1344;SDS011;15375;48.540;9.268;2023-07-31T03:11:20;4.30;;;1.93;;
1344;SDS011;15375;48.540;9.268;2023-07-31T03:13:45;2.90;;;2.00;;
1344;SDS011;15375;48.540;9.268;2023-07-31T03:16:11;3.13;;;2.03;;
1344;SDS011;15375;48.540;9.268;2023-07-31T03:18:36;3.77;;;1.83;;
1344;SDS011;15375;48.540;9.268;2023-07-31T03:21:02;3.60;;;2.37;;
1344;SDS011;15375;48.540;9.268;2023-07-31T03:23:27;2.93;;;1.80;;
1344;SDS011;15375;48.540;9.268;2023-07-31T03:25:59;3.43;;;1.73;;
1344;SDS011;15375;48.540;9.268;2023-07-31T03:28:26;3.63;;;2.83;;
1344;SDS011;15375;48.540;9.268;2023-07-31T03:30:52;3.53;;;2.37;;
1344;SDS011;15375;48.540;9.268;2023-07-31T03:33:18;2.90;;;1.73;;
1344;SDS011;15375;48.540;9.268;2023-07-31T03:35:43;4.53;;;2.33;;
1344;SDS011;15375;48.540;9.268;2023-07-31T03:38:09;7.50;;;2.43;;
1344;SDS011;15375;48.540;9.268;2023-07-31T03:40:34;3.20;;;2.50;;
1344;SDS011;15375;48.540;9.268;2023-07-31T03:43:00;2.57;;;1.97;;
1344;SDS011;15375;48.540;9.268;2023-07-31T03:45:25;2.60;;;2.13;;
1344;SDS011;15375;48.540;9.268;2023-07-31T03:47:50;3.70;;;2.63;;
1344;SDS011;15375;48.540;9.268;2023-07-31T03:50:16;3.50;;;2.87;;
1344;SDS011;15375;48.540;9.268;2023-07-31T03:52:42;3.63;;;2.20;;
1344;SDS011;15375;48.540;9.268;2023-07-31T03:55:07;3.87;;;2.20;;
1344;SDS011;15375;48.540;9.268;2023-07-31T03:57:33;2.83;;;2.63;;
1344;SDS011;15375;48.540;9.268;2023-07-31T03:59:58;4.70;;;2.17;;
1344;SDS011;15375;48.540;9.268;2023-07-31T04:02:24;4.63;;;2.87;;
1344;SDS011;15375;48.540;9.268;2023-07-31T04:04:49;4.10;;;2.60;;
1344;SDS011;15375;48.540;9.268;2023-07-31T04:07:15;3.20;;;2.90;;
1344;SDS011;15375;48.540;9.268;2023-07-31T04:09:40;5.70;;;2.53;;
1344;SDS011;15375;48.540;9.268;2023-07-31T04:12:06;4.30;;;2.60;;
1344;SDS011;15375;48.540;9.268;2023-07-31T04:14:32;7.47;;;2.90;;
1344;SDS011;15375;48.540;9.268;2023-07-31T04:16:57;2.70;;;1.90;;
1344;SDS011;15375;48.540;9.268;2023-07-31T04:19:22;3.20;;;3.00;;
1344;SDS011;15375;48.540;9.268;2023-07-31T04:21:48;4.30;;;2.57;;
1344;SDS011;15375;48.540;9.268;2023-07-31T04:24:13;3.10;;;2.30;;
1344;SDS011;15375;48.540;9.268;2023-07-31T04:26:39;5.43;;;3.43;;
1344;SDS011;15375;48.540;9.268;2023-07-31T04:29:04;4.20;;;2.93;;
1344;SDS011;15375;48.540;9.268;2023-07-31T04:31:30;8.33;;;3.10;;
1344;SDS011;15375;48.540;9.268;2023-07-31T04:33:55;5.10;;;2.43;;
1344;SDS011;15375;48.540;9.268;2023-07-31T04:36:21;5.70;;;2.80;;
1344;SDS011;15375;48.540;9.268;2023-07-31T04:38:46;3.20;;;2.30;;
1344;SDS011;15375;48.540;9.268;2023-07-31T04:41:12;3.27;;;2.13;;
1344;SDS011;15375;48.540;9.268;2023-07-31T04:43:37;6.40;;;2.80;;
1344;SDS011;15375;48.540;9.268;2023-07-31T04:46:04;3.77;;;2.00;;
1344;SDS011;15375;48.540;9.268;2023-07-31T04:48:30;3.30;;;2.40;;
1344;SDS011;15375;48.540;9.268;2023-07-31T04:50:56;2.37;;;2.17;;
1344;SDS011;15375;48.540;9.268;2023-07-31T04:53:21;2.43;;;2.07;;
1344;SDS011;15375;48.540;9.268;2023-07-31T04:55:47;3.13;;;2.57;;
1344;SDS011;15375;48.540;9.268;2023-07-31T04:58:12;7.30;;;2.53;;
1344;SDS011;15375;48.540;9.268;2023-07-31T05:00:37;3.87;;;2.50;;
1344;SDS011;15375;48.540;9.268;2023-07-31T05:03:03;7.23;;;2.90;;
1344;SDS011;15375;48.540;9.268;2023-07-31T05:05:28;7.23;;;2.80;;
1344;SDS011;15375;48.540;9.268;2023-07-31T05:07:54;5.07;;;2.60;;
1344;SDS011;15375;48.540;9.268;2023-07-31T05:10:19;5.10;;;2.83;;
1344;SDS011;15375;48.540;9.268;2023-07-31T05:12:44;4.27;;;2.20;;
1344;SDS011;15375;48.540;9.268;2023-07-31T05:15:10;3.60;;;3.00;;
1344;SDS011;15375;48.540;9.268;2023-07-31T05:17:36;9.10;;;3.03;;
1344;SDS011;15375;48.540;9.268;2023-07-31T05:20:01;5.97;;;2.77;;
1344;SDS011;15375;48.540;9.268;2023-07-31T05:22:27;4.53;;;2.50;;
1344;SDS011;15375;48.540;9.268;2023-07-31T05:24:52;6.20;;;3.00;;
1344;SDS011;15375;48.540;9.268;2023-07-31T05:27:19;7.73;;;3.30;;
1344;SDS011;15375;48.540;9.268;2023-07-31T05:29:44;3.10;;;2.37;;
1344;SDS011;15375;48.540;9.268;2023-07-31T05:32:10;3.37;;;2.57;;
1344;SDS011;15375;48.540;9.268;2023-07-31T05:34:36;3.80;;;2.83;;
1344;SDS011;15375;48.540;9.268;2023-07-31T05:37:01;6.30;;;2.97;;
1344;SDS011;15375;48.540;9.268;2023-07-31T05:39:27;3.57;;;2.80;;
1344;SDS011;15375;48.540;9.268;2023-07-31T05:41:52;4.37;;;2.67;;
1344;SDS011;15375;48.540;9.268;2023-07-31T05:44:18;3.20;;;2.70;;
1344;SDS011;15375;48.540;9.268;2023-07-31T05:46:43;5.40;;;3.10;;
1344;SDS011;15375;48.540;9.268;2023-07-31T05:49:08;4.63;;;2.80;;
1344;SDS011;15375;48.540;9.268;2023-07-31T05:51:34;5.10;;;2.40;;
1344;SDS011;15375;48.540;9.268;2023-07-31T05:53:59;2.87;;;2.20;;
1344;SDS011;15375;48.540;9.268;2023-07-31T05:56:25;4.80;;;2.47;;
1344;SDS011;15375;48.540;9.268;2023-07-31T05:58:52;4.53;;;3.33;;
1344;SDS011;15375;48.540;9.268;2023-07-31T06:01:17;3.47;;;2.70;;
1344;SDS011;15375;48.540;9.268;2023-07-31T06:03:43;4.80;;;2.73;;
1344;SDS011;15375;48.540;9.268;2023-07-31T06:06:08;3.73;;;3.03;;
1344;SDS011;15375;48.540;9.268;2023-07-31T06:08:34;7.20;;;2.57;;
1344;SDS011;15375;48.540;9.268;2023-07-31T06:10:59;2.50;;;2.30;;
1344;SDS011;15375;48.540;9.268;2023-07-31T06:13:25;2.30;;;1.93;;
1344;SDS011;15375;48.540;9.268;2023-07-31T06:15:50;3.60;;;2.30;;
1344;SDS011;15375;48.540;9.268;2023-07-31T06:18:16;4.03;;;2.60;;
1344;SDS011;15375;48.540;9.268;2023-07-31T06:20:41;5.23;;;2.53;;
1344;SDS011;15375;48.540;9.268;2023-07-31T06:23:07;4.23;;;3.10;;
1344;SDS011;15375;48.540;9.268;2023-07-31T06:25:33;5.67;;;2.50;;
1344;SDS011;15375;48.540;9.268;2023-07-31T06:27:58;3.40;;;2.50;;
1344;SDS011;15375;48.540;9.268;2023-07-31T06:30:23;4.93;;;2.73;;
1344;SDS011;15375;48.540;9.268;2023-07-31T06:32:49;4.90;;;3.10;;
1344;SDS011;15375;48.540;9.268;2023-07-31T06:35:14;3.50;;;2.53;;
1344;SDS011;15375;48.540;9.268;2023-07-31T06:37:40;5.50;;;2.80;;
1344;SDS011;15375;48.540;9.268;2023-07-31T06:40:08;3.30;;;3.00;;
1344;SDS011;15375;48.540;9.268;2023-07-31T06:42:34;3.53;;;2.60;;
1344;SDS011;15375;48.540;9.268;2023-07-31T06:45:00;3.33;;;2.67;;
1344;SDS011;15375;48.540;9.268;2023-07-31T06:47:27;4.67;;;2.63;;
1344;SDS011;15375;48.540;9.268;2023-07-31T06:49:52;5.43;;;3.03;;
1344;SDS011;15375;48.540;9.268;2023-07-31T06:52:17;3.40;;;2.50;;
1344;SDS011;15375;48.540;9.268;2023-07-31T06:54:43;3.90;;;2.57;;
1344;SDS011;15375;48.540;9.268;2023-07-31T06:57:08;2.13;;;1.93;;
1344;SDS011;15375;48.540;9.268;2023-07-31T06:59:34;3.53;;;3.00;;
1344;SDS011;15375;48.540;9.268;2023-07-31T07:01:59;7.10;;;2.80;;
1344;SDS011;15375;48.540;9.268;2023-07-31T07:04:24;2.30;;;2.10;;
1344;SDS011;15375;48.540;9.268;2023-07-31T07:06:51;4.93;;;3.53;;
1344;SDS011;15375;48.540;9.268;2023-07-31T07:09:17;6.63;;;3.70;;
1344;SDS011;15375;48.540;9.268;2023-07-31T07:11:43;6.20;;;2.80;;
1344;SDS011;15375;48.540;9.268;2023-07-31T07:14:08;6.07;;;3.10;;
1344;SDS011;15375;48.540;9.268;2023-07-31T07:16:34;4.80;;;3.60;;
1344;SDS011;15375;48.540;9.268;2023-07-31T07:18:59;2.83;;;2.10;;
1344;SDS011;15375;48.540;9.268;2023-07-31T07:21:24;7.87;;;3.17;;
1344;SDS011;15375;48.540;9.268;2023-07-31T07:23:50;8.07;;;4.10;;
1344;SDS011;15375;48.540;9.268;2023-07-31T07:26:15;3.77;;;2.70;;
1344;SDS011;15375;48.540;9.268;2023-07-31T07:28:41;4.17;;;2.03;;
1344;SDS011;15375;48.540;9.268;2023-07-31T07:31:06;4.83;;;3.23;;
1344;SDS011;15375;48.540;9.268;2023-07-31T07:33:32;6.73;;;4.70;;
1344;SDS011;15375;48.540;9.268;2023-07-31T07:36:01;7.53;;;2.53;;
1344;SDS011;15375;48.540;9.268;2023-07-31T07:38:27;2.60;;;2.20;;
1344;SDS011;15375;48.540;9.268;2023-07-31T07:40:52;2.90;;;2.53;;
1344;SDS011;15375;48.540;9.268;2023-07-31T07:43:18;7.10;;;2.50;;
1344;SDS011;15375;48.540;9.268;2023-07-31T07:45:44;3.30;;;2.50;;
1344;SDS011;15375;48.540;9.268;2023-07-31T07:48:09;4.93;;;2.47;;
1344;SDS011;15375;48.540;9.268;2023-07-31T07:50:35;2.20;;;2.00;;
1344;SDS011;15375;48.540;9.268;2023-07-31T07:53:00;3.20;;;2.43;;
1344;SDS011;15375;48.540;9.268;2023-07-31T07:55:25;3.20;;;2.43;;
1344;SDS011;15375;48.540;9.268;2023-07-31T07:57:51;4.27;;;2.27;;
1344;SDS011;15375;48.540;9.268;2023-07-31T08:00:16;4.30;;;2.23;;
1344;SDS011;15375;48.540;9.268;2023-07-31T08:02:42;3.37;;;2.10;;
1344;SDS011;15375;48.540;9.268;2023-07-31T08:05:08;3.90;;;2.37;;
1344;SDS011;15375;48.540;9.268;2023-07-31T08:07:34;5.23;;;2.20;;
1344;SDS011;15375;48.540;9.268;2023-07-31T08:09:59;3.03;;;2.73;;
1344;SDS011;15375;48.540;9.268;2023-07-31T08:12:24;3.60;;;2.87;;
1344;SDS011;15375;48.540;9.268;2023-07-31T08:14:50;5.33;;;2.70;;
1344;SDS011;15375;48.540;9.268;2023-07-31T08:17:16;4.10;;;2.00;;
1344;SDS011;15375;48.540;9.268;2023-07-31T08:19:41;5.47;;;2.77;;
1344;SDS011;15375;48.540;9.268;2023-07-31T08:22:07;4.97;;;2.30;;
1344;SDS011;15375;48.540;9.268;2023-07-31T08:24:32;3.13;;;2.03;;
1344;SDS011;15375;48.540;9.268;2023-07-31T08:26:58;3.03;;;2.17;;
1344;SDS011;15375;48.540;9.268;2023-07-31T08:29:24;2.40;;;2.20;;
1344;SDS011;15375;48.540;9.268;2023-07-31T08:31:50;2.27;;;2.03;;
1344;SDS011;15375;48.540;9.268;2023-07-31T08:34:15;6.27;;;2.20;;
1344;SDS011;15375;48.540;9.268;2023-07-31T08:36:41;4.67;;;2.20;;
1344;SDS011;15375;48.540;9.268;2023-07-31T08:39:06;4.77;;;2.70;;
1344;SDS011;15375;48.540;9.268;2023-07-31T08:41:36;2.90;;;2.50;;
1344;SDS011;15375;48.540;9.268;2023-07-31T08:44:04;6.20;;;2.50;;
1344;SDS011;15375;48.540;9.268;2023-07-31T08:46:29;3.73;;;2.87;;
1344;SDS011;15375;48.540;9.268;2023-07-31T08:48:56;4.30;;;2.70;;
1344;SDS011;15375;48.540;9.268;2023-07-31T08:51:23;3.90;;;2.33;;
1344;SDS011;15375;48.540;9.268;2023-07-31T08:53:49;3.13;;;2.10;;
1344;SDS011;15375;48.540;9.268;2023-07-31T08:56:15;3.70;;;3.23;;
1344;SDS011;15375;48.540;9.268;2023-07-31T08:58:41;3.50;;;2.50;;
1344;SDS011;15375;48.540;9.268;2023-07-31T09:01:08;3.63;;;2.87;;
1344;SDS011;15375;48.540;9.268;2023-07-31T09:03:34;5.97;;;2.20;;
1344;SDS011;15375;48.540;9.268;2023-07-31T09:06:01;4.63;;;2.50;;
1344;SDS011;15375;48.540;9.268;2023-07-31T09:08:30;2.20;;;2.00;;
1344;SDS011;15375;48.540;9.268;2023-07-31T09:10:59;4.70;;;2.70;;
1344;SDS011;15375;48.540;9.268;2023-07-31T09:13:31;6.40;;;4.27;;
1344;SDS011;15375;48.540;9.268;2023-07-31T09:15:56;3.50;;;2.53;;
1344;SDS011;15375;48.540;9.268;2023-07-31T09:18:22;4.70;;;2.53;;
1344;SDS011;15375;48.540;9.268;2023-07-31T09:21:04;5.77;;;2.80;;
1344;SDS011;15375;48.540;9.268;2023-07-31T09:23:40;5.53;;;2.60;;
1344;SDS011;15375;48.540;9.268;2023-07-31T09:26:07;6.07;;;3.10;;
1344;SDS011;15375;48.540;9.268;2023-07-31T09:28:32;3.47;;;2.67;;
1344;SDS011;15375;48.540;9.268;2023-07-31T09:30:58;4.07;;;2.73;;
1344;SDS011;15375;48.540;9.268;2023-07-31T09:33:23;5.13;;;2.90;;
1344;SDS011;15375;48.540;9.268;2023-07-31T09:35:49;3.80;;;2.60;;
1344;SDS011;15375;48.540;9.268;2023-07-31T09:38:14;3.23;;;2.77;;
1344;SDS011;15375;48.540;9.268;2023-07-31T09:40:42;4.73;;;2.90;;
1344;SDS011;15375;48.540;9.268;2023-07-31T09:43:13;4.20;;;3.27;;
1344;SDS011;15375;48.540;9.268;2023-07-31T09:45:42;2.50;;;2.27;;
1344;SDS011;15375;48.540;9.268;2023-07-31T09:48:09;7.00;;;3.20;;
1344;SDS011;15375;48.540;9.268;2023-07-31T09:50:43;7.43;;;3.00;;
1344;SDS011;15375;48.540;9.268;2023-07-31T09:53:13;2.90;;;2.53;;
1344;SDS011;15375;48.540;9.268;2023-07-31T09:55:42;6.60;;;3.40;;
1344;SDS011;15375;48.540;9.268;2023-07-31T09:58:09;4.70;;;2.70;;
1344;SDS011;15375;48.540;9.268;2023-07-31T10:00:38;3.97;;;2.67;;
1344;SDS011;15375;48.540;9.268;2023-07-31T10:03:08;3.00;;;2.60;;
1344;SDS011;15375;48.540;9.268;2023-07-31T10:05:36;4.23;;;3.10;;
1344;SDS011;15375;48.540;9.268;2023-07-31T10:08:03;4.60;;;2.60;;
1344;SDS011;15375;48.540;9.268;2023-07-31T10:10:31;3.47;;;3.00;;
1344;SDS011;15375;48.540;9.268;2023-07-31T10:12:57;6.27;;;2.20;;
1344;SDS011;15375;48.540;9.268;2023-07-31T10:15:25;3.37;;;2.13;;
1344;SDS011;15375;48.540;9.268;2023-07-31T10:17:51;3.77;;;2.43;;
1344;SDS011;15375;48.540;9.268;2023-07-31T10:20:19;3.63;;;2.23;;
1344;SDS011;15375;48.540;9.268;2023-07-31T10:22:46;4.00;;;2.50;;
1344;SDS011;15375;48.540;9.268;2023-07-31T10:25:13;6.20;;;2.57;;
1344;SDS011;15375;48.540;9.268;2023-07-31T10:27:40;4.87;;;3.10;;
1344;SDS011;15375;48.540;9.268;2023-07-31T10:30:14;3.57;;;2.50;;
1344;SDS011;15375;48.540;9.268;2023-07-31T10:32:42;4.70;;;2.80;;
1344;SDS011;15375;48.540;9.268;2023-07-31T10:35:09;3.27;;;2.97;;
1344;SDS011;15375;48.540;9.268;2023-07-31T10:37:42;6.00;;;3.30;;
1344;SDS011;15375;48.540;9.268;2023-07-31T10:40:13;3.93;;;2.73;;
1344;SDS011;15375;48.540;9.268;2023-07-31T10:45:35;3.70;;;2.77;;
1344;SDS011;15375;48.540;9.268;2023-07-31T10:48:03;6.57;;;3.40;;
1344;SDS011;15375;48.540;9.268;2023-07-31T10:50:30;4.43;;;3.10;;
1344;SDS011;15375;48.540;9.268;2023-07-31T10:52:59;3.23;;;2.60;;
1344;SDS011;15375;48.540;9.268;2023-07-31T10:58:08;4.47;;;3.03;;
1344;SDS011;15375;48.540;9.268;2023-07-31T11:00:37;4.40;;;3.40;;
1344;SDS011;15375;48.540;9.268;2023-07-31T11:03:05;4.53;;;2.87;;
1344;SDS011;15375;48.540;9.268;2023-07-31T11:08:22;2.87;;;2.67;;
1344;SDS011;15375;48.540;9.268;2023-07-31T11:11:05;8.50;;;2.80;;
1344;SDS011;15375;48.540;9.268;2023-07-31T11:13:34;7.53;;;2.70;;
1344;SDS011;15375;48.540;9.268;2023-07-31T11:16:04;4.10;;;2.47;;
1344;SDS011;15375;48.540;9.268;2023-07-31T11:18:30;6.03;;;2.90;;
1344;SDS011;15375;48.540;9.268;2023-07-31T11:20:55;3.50;;;2.33;;
1344;SDS011;15375;48.540;9.268;2023-07-31T11:23:21;4.30;;;2.90;;
1344;SDS011;15375;48.540;9.268;2023-07-31T11:25:48;3.63;;;2.20;;
1344;SDS011;15375;48.540;9.268;2023-07-31T11:28:15;6.10;;;3.00;;
1344;SDS011;15375;48.540;9.268;2023-07-31T11:30:42;3.40;;;2.83;;
1344;SDS011;15375;48.540;9.268;2023-07-31T11:33:09;3.33;;;2.70;;
1344;SDS011;15375;48.540;9.268;2023-07-31T11:35:41;3.60;;;3.00;;
1344;SDS011;15375;48.540;9.268;2023-07-31T11:38:32;4.70;;;2.73;;
1344;SDS011;15375;48.540;9.268;2023-07-31T11:41:03;3.47;;;2.70;;
1344;SDS011;15375;48.540;9.268;2023-07-31T11:43:33;3.90;;;2.70;;
1344;SDS011;15375;48.540;9.268;2023-07-31T11:46:01;2.70;;;2.07;;
1344;SDS011;15375;48.540;9.268;2023-07-31T11:48:32;5.27;;;3.00;;
1344;SDS011;15375;48.540;9.268;2023-07-31T11:51:01;3.20;;;2.80;;
1344;SDS011;15375;48.540;9.268;2023-07-31T11:56:09;4.90;;;3.17;;
1344;SDS011;15375;48.540;9.268;2023-07-31T11:58:40;4.03;;;3.37;;
1344;SDS011;15375;48.540;9.268;2023-07-31T12:01:08;4.40;;;3.10;;
1344;SDS011;15375;48.540;9.268;2023-07-31T12:03:34;2.83;;;2.13;;
1344;SDS011;15375;48.540;9.268;2023-07-31T12:06:00;3.63;;;3.13;;
1344;SDS011;15375;48.540;9.268;2023-07-31T12:08:26;6.43;;;3.97;;
1344;SDS011;15375;48.540;9.268;2023-07-31T12:10:52;4.03;;;3.07;;
1344;SDS011;15375;48.540;9.268;2023-07-31T12:13:25;4.17;;;3.00;;
1344;SDS011;15375;48.540;9.268;2023-07-31T12:15:55;4.07;;;3.00;;
1344;SDS011;15375;48.540;9.268;2023-07-31T12:18:29;9.10;;;3.27;;
1344;SDS011;15375;48.540;9.268;2023-07-31T12:20:59;5.73;;;3.20;;
1344;SDS011;15375;48.540;9.268;2023-07-31T12:23:26;6.53;;;3.37;;
1344;SDS011;15375;48.540;9.268;2023-07-31T12:26:08;3.90;;;2.63;;
1344;SDS011;15375;48.540;9.268;2023-07-31T12:28:42;4.20;;;2.47;;
1344;SDS011;15375;48.540;9.268;2023-07-31T12:31:10;4.10;;;3.30;;
1344;SDS011;15375;48.540;9.268;2023-07-31T12:33:37;5.07;;;3.50;;
1344;SDS011;15375;48.540;9.268;2023-07-31T12:36:15;3.03;;;2.63;;
1344;SDS011;15375;48.540;9.268;2023-07-31T12:38:42;4.70;;;3.57;;
1344;SDS011;15375;48.540;9.268;2023-07-31T12:41:11;3.83;;;3.10;;
1344;SDS011;15375;48.540;9.268;2023-07-31T12:43:38;4.63;;;3.93;;
1344;SDS011;15375;48.540;9.268;2023-07-31T12:46:05;4.27;;;3.87;;
1344;SDS011;15375;48.540;9.268;2023-07-31T12:48:33;7.43;;;3.07;;
1344;SDS011;15375;48.540;9.268;2023-07-31T12:50:59;3.50;;;2.93;;
1344;SDS011;15375;48.540;9.268;2023-07-31T12:53:25;4.40;;;3.37;;
1344;SDS011;15375;48.540;9.268;2023-07-31T12:55:50;4.50;;;3.00;;
1344;SDS011;15375;48.540;9.268;2023-07-31T12:58:16;4.50;;;3.47;;
1344;SDS011;15375;48.540;9.268;2023-07-31T13:00:41;3.87;;;3.20;;
1344;SDS011;15375;48.540;9.268;2023-07-31T13:03:09;3.43;;;3.13;;
1344;SDS011;15375;48.540;9.268;2023-07-31T13:05:35;4.27;;;3.37;;
1344;SDS011;15375;48.540;9.268;2023-07-31T13:08:01;8.10;;;3.47;;
1344;SDS011;15375;48.540;9.268;2023-07-31T13:10:29;5.20;;;3.80;;
1344;SDS011;15375;48.540;9.268;2023-07-31T13:12:55;14.00;;;3.77;;
1344;SDS011;15375;48.540;9.268;2023-07-31T13:15:21;4.10;;;3.70;;
1344;SDS011;15375;48.540;9.268;2023-07-31T13:17:49;4.23;;;3.83;;
1344;SDS011;15375;48.540;9.268;2023-07-31T13:20:15;5.60;;;3.47;;
1344;SDS011;15375;48.540;9.268;2023-07-31T13:22:40;4.23;;;3.67;;
1344;SDS011;15375;48.540;9.268;2023-07-31T13:25:11;5.30;;;3.63;;
1344;SDS011;15375;48.540;9.268;2023-07-31T13:27:37;5.60;;;3.40;;
1344;SDS011;15375;48.540;9.268;2023-07-31T13:30:06;4.67;;;3.40;;
1344;SDS011;15375;48.540;9.268;2023-07-31T13:32:32;4.03;;;3.30;;
1344;SDS011;15375;48.540;9.268;2023-07-31T13:34:58;5.13;;;3.13;;
1344;SDS011;15375;48.540;9.268;2023-07-31T13:37:23;5.83;;;3.50;;
1344;SDS011;15375;48.540;9.268;2023-07-31T13:39:49;4.00;;;3.13;;
1344;SDS011;15375;48.540;9.268;2023-07-31T13:42:18;5.37;;;3.50;;
1344;SDS011;15375;48.540;9.268;2023-07-31T13:44:47;3.87;;;2.50;;
1344;SDS011;15375;48.540;9.268;2023-07-31T13:47:12;5.07;;;3.40;;
1344;SDS011;15375;48.540;9.268;2023-07-31T13:49:40;5.47;;;3.70;;
1344;SDS011;15375;48.540;9.268;2023-07-31T13:52:06;5.63;;;3.23;;
1344;SDS011;15375;48.540;9.268;2023-07-31T13:54:32;4.43;;;3.40;;
1344;SDS011;15375;48.540;9.268;2023-07-31T13:56:58;5.37;;;3.90;;
1344;SDS011;15375;48.540;9.268;2023-07-31T13:59:23;4.50;;;3.47;;
1344;SDS011;15375;48.540;9.268;2023-07-31T14:01:49;5.67;;;3.10;;
1344;SDS011;15375;48.540;9.268;2023-07-31T14:04:15;4.57;;;3.07;;
1344;SDS011;15375;48.540;9.268;2023-07-31T14:06:43;4.90;;;3.70;;
1344;SDS011;15375;48.540;9.268;2023-07-31T14:09:09;4.73;;;3.73;;
1344;SDS011;15375;48.540;9.268;2023-07-31T14:11:34;7.40;;;3.73;;
1344;SDS011;15375;48.540;9.268;2023-07-31T14:14:00;4.00;;;3.47;;
1344;SDS011;15375;48.540;9.268;2023-07-31T14:16:28;6.43;;;4.13;;
1344;SDS011;15375;48.540;9.268;2023-07-31T14:18:54;9.53;;;4.07;;
1344;SDS011;15375;48.540;9.268;2023-07-31T14:21:19;6.50;;;4.23;;
1344;SDS011;15375;48.540;9.268;2023-07-31T14:23:48;8.10;;;5.50;;
1344;SDS011;15375;48.540;9.268;2023-07-31T14:26:13;13.10;;;6.13;;
1344;SDS011;15375;48.540;9.268;2023-07-31T14:28:38;11.33;;;5.83;;
1344;SDS011;15375;48.540;9.268;2023-07-31T14:31:06;25.33;;;11.77;;
1344;SDS011;15375;48.540;9.268;2023-07-31T14:33:32;11.07;;;5.70;;
1344;SDS011;15375;48.540;9.268;2023-07-31T14:35:58;10.30;;;4.70;;
1344;SDS011;15375;48.540;9.268;2023-07-31T14:38:24;5.17;;;3.77;;
1344;SDS011;15375;48.540;9.268;2023-07-31T14:40:50;5.93;;;4.40;;
1344;SDS011;15375;48.540;9.268;2023-07-31T14:43:16;14.27;;;7.40;;
1344;SDS011;15375;48.540;9.268;2023-07-31T14:45:44;8.47;;;4.50;;
1344;SDS011;15375;48.540;9.268;2023-07-31T14:48:18;4.40;;;3.60;;
1344;SDS011;15375;48.540;9.268;2023-07-31T14:50:44;4.80;;;3.50;;
1344;SDS011;15375;48.540;9.268;2023-07-31T14:53:11;4.00;;;3.10;;
1344;SDS011;15375;48.540;9.268;2023-07-31T14:55:37;5.10;;;3.50;;
1344;SDS011;15375;48.540;9.268;2023-07-31T14:58:02;3.60;;;2.93;;
1344;SDS011;15375;48.540;9.268;2023-07-31T15:00:28;11.20;;;3.63;;
1344;SDS011;15375;48.540;9.268;2023-07-31T15:02:54;19.43;;;4.70;;
1344;SDS011;15375;48.540;9.268;2023-07-31T15:05:19;4.37;;;2.70;;
1344;SDS011;15375;48.540;9.268;2023-07-31T15:07:47;4.43;;;3.00;;
1344;SDS011;15375;48.540;9.268;2023-07-31T15:10:13;3.53;;;3.20;;
1344;SDS011;15375;48.540;9.268;2023-07-31T15:12:43;3.60;;;3.30;;